sensor_id;sensor_type;location;lat;lon;timestamp;P1;durP1;ratioP1;P2;durP2;ratioP2
73132;SDS011;61320;52.008;4.530;2023-01-25T00:00:20;48.85;;;45.82;;
73132;SDS011;61320;52.008;4.530;2023-01-25T00:02:45;49.05;;;46.20;;
73132;SDS011;61320;52.008;4.530;2023-01-25T00:05:11;49.70;;;46.64;;
73132;SDS011;61320;52.008;4.530;2023-01-25T00:07:36;49.53;;;46.71;;
73132;SDS011;61320;52.008;4.530;2023-01-25T00:10:02;48.94;;;45.85;;
73132;SDS011;61320;52.008;4.530;2023-01-25T00:12:27;49.84;;;46.83;;
73132;SDS011;61320;52.008;4.530;2023-01-25T00:14:53;48.20;;;45.53;;
73132;SDS011;61320;52.008;4.530;2023-01-25T00:17:18;50.68;;;47.65;;
73132;SDS011;61320;52.008;4.530;2023-01-25T00:19:44;51.22;;;48.00;;
73132;SDS011;61320;52.008;4.530;2023-01-25T00:22:09;49.84;;;47.12;;
73132;SDS011;61320;52.008;4.530;2023-01-25T00:24:35;52.42;;;49.12;;
73132;SDS011;61320;52.008;4.530;2023-01-25T00:27:01;51.35;;;48.12;;
73132;SDS011;61320;52.008;4.530;2023-01-25T00:29:27;51.89;;;48.45;;
73132;SDS011;61320;52.008;4.530;2023-01-25T00:31:53;51.36;;;48.43;;
73132;SDS011;61320;52.008;4.530;2023-01-25T00:36:55;49.53;;;46.60;;
73132;SDS011;61320;52.008;4.530;2023-01-25T00:39:22;50.55;;;47.22;;
73132;SDS011;61320;52.008;4.530;2023-01-25T00:41:50;48.51;;;45.91;;
73132;SDS011;61320;52.008;4.530;2023-01-25T00:44:15;50.96;;;47.40;;
73132;SDS011;61320;52.008;4.530;2023-01-25T00:46:41;51.82;;;48.22;;
73132;SDS011;61320;52.008;4.530;2023-01-25T00:49:07;51.25;;;47.89;;
73132;SDS011;61320;52.008;4.530;2023-01-25T00:51:51;49.93;;;46.71;;
73132;SDS011;61320;52.008;4.530;2023-01-25T00:54:18;49.99;;;46.97;;
73132;SDS011;61320;52.008;4.530;2023-01-25T00:56:44;50.07;;;47.10;;
73132;SDS011;61320;52.008;4.530;2023-01-25T00:59:10;49.80;;;46.93;;
73132;SDS011;61320;52.008;4.530;2023-01-25T01:01:36;53.17;;;49.16;;
73132;SDS011;61320;52.008;4.530;2023-01-25T01:04:02;51.21;;;47.87;;
73132;SDS011;61320;52.008;4.530;2023-01-25T01:06:28;51.11;;;47.75;;
73132;SDS011;61320;52.008;4.530;2023-01-25T01:08:53;51.25;;;48.21;;
73132;SDS011;61320;52.008;4.530;2023-01-25T01:11:18;49.49;;;46.37;;
73132;SDS011;61320;52.008;4.530;2023-01-25T01:13:44;49.98;;;46.89;;
73132;SDS011;61320;52.008;4.530;2023-01-25T01:16:10;49.73;;;46.72;;
73132;SDS011;61320;52.008;4.530;2023-01-25T01:18:39;48.63;;;45.62;;
73132;SDS011;61320;52.008;4.530;2023-01-25T01:21:06;48.93;;;46.10;;
73132;SDS011;61320;52.008;4.530;2023-01-25T01:23:32;49.32;;;46.24;;
73132;SDS011;61320;52.008;4.530;2023-01-25T01:26:03;50.30;;;46.98;;
73132;SDS011;61320;52.008;4.530;2023-01-25T01:28:30;49.57;;;46.27;;
73132;SDS011;61320;52.008;4.530;2023-01-25T01:31:01;50.71;;;47.15;;
73132;SDS011;61320;52.008;4.530;2023-01-25T01:33:28;52.70;;;48.98;;
73132;SDS011;61320;52.008;4.530;2023-01-25T01:35:56;50.19;;;46.84;;
73132;SDS011;61320;52.008;4.530;2023-01-25T01:38:21;51.03;;;47.99;;
73132;SDS011;61320;52.008;4.530;2023-01-25T01:40:47;51.18;;;47.85;;
73132;SDS011;61320;52.008;4.530;2023-01-25T01:48:19;50.25;;;47.30;;
73132;SDS011;61320;52.008;4.530;2023-01-25T01:51:02;52.41;;;49.17;;
73132;SDS011;61320;52.008;4.530;2023-01-25T01:53:34;52.41;;;49.16;;
73132;SDS011;61320;52.008;4.530;2023-01-25T01:56:02;53.10;;;49.45;;
73132;SDS011;61320;52.008;4.530;2023-01-25T01:58:33;53.61;;;49.90;;
73132;SDS011;61320;52.008;4.530;2023-01-25T02:01:01;52.26;;;48.99;;
73132;SDS011;61320;52.008;4.530;2023-01-25T02:03:27;54.15;;;49.85;;
73132;SDS011;61320;52.008;4.530;2023-01-25T02:05:59;52.33;;;48.99;;
73132;SDS011;61320;52.008;4.530;2023-01-25T02:08:29;52.44;;;48.80;;
73132;SDS011;61320;52.008;4.530;2023-01-25T02:10:59;52.64;;;49.09;;
73132;SDS011;61320;52.008;4.530;2023-01-25T02:13:25;53.86;;;49.89;;
73132;SDS011;61320;52.008;4.530;2023-01-25T02:15:52;53.38;;;49.49;;
73132;SDS011;61320;52.008;4.530;2023-01-25T02:18:20;55.13;;;51.11;;
73132;SDS011;61320;52.008;4.530;2023-01-25T02:20:49;54.20;;;50.41;;
73132;SDS011;61320;52.008;4.530;2023-01-25T02:25:59;53.06;;;49.13;;
73132;SDS011;61320;52.008;4.530;2023-01-25T02:28:38;54.88;;;50.94;;
73132;SDS011;61320;52.008;4.530;2023-01-25T02:31:16;54.82;;;50.79;;
73132;SDS011;61320;52.008;4.530;2023-01-25T02:33:42;53.75;;;50.26;;
73132;SDS011;61320;52.008;4.530;2023-01-25T02:38:34;55.21;;;51.02;;
73132;SDS011;61320;52.008;4.530;2023-01-25T02:41:14;56.01;;;51.47;;
73132;SDS011;61320;52.008;4.530;2023-01-25T02:43:46;55.19;;;51.13;;
73132;SDS011;61320;52.008;4.530;2023-01-25T02:46:17;55.23;;;51.23;;
73132;SDS011;61320;52.008;4.530;2023-01-25T02:48:50;54.34;;;50.48;;
73132;SDS011;61320;52.008;4.530;2023-01-25T02:51:15;54.76;;;51.26;;
73132;SDS011;61320;52.008;4.530;2023-01-25T02:53:41;55.44;;;51.69;;
73132;SDS011;61320;52.008;4.530;2023-01-25T02:56:07;55.08;;;51.03;;
73132;SDS011;61320;52.008;4.530;2023-01-25T02:58:32;55.83;;;51.80;;
73132;SDS011;61320;52.008;4.530;2023-01-25T03:00:58;54.73;;;50.90;;
73132;SDS011;61320;52.008;4.530;2023-01-25T03:03:24;54.57;;;51.01;;
73132;SDS011;61320;52.008;4.530;2023-01-25T03:05:50;54.17;;;50.84;;
73132;SDS011;61320;52.008;4.530;2023-01-25T03:08:15;55.45;;;51.41;;
73132;SDS011;61320;52.008;4.530;2023-01-25T03:10:41;54.02;;;50.57;;
73132;SDS011;61320;52.008;4.530;2023-01-25T03:13:06;54.10;;;50.64;;
73132;SDS011;61320;52.008;4.530;2023-01-25T03:15:32;54.86;;;51.21;;
73132;SDS011;61320;52.008;4.530;2023-01-25T03:17:57;54.88;;;51.10;;
73132;SDS011;61320;52.008;4.530;2023-01-25T03:20:23;55.10;;;50.99;;
73132;SDS011;61320;52.008;4.530;2023-01-25T03:22:49;55.41;;;51.79;;
73132;SDS011;61320;52.008;4.530;2023-01-25T03:25:14;55.69;;;51.46;;
73132;SDS011;61320;52.008;4.530;2023-01-25T03:27:40;55.00;;;51.29;;
73132;SDS011;61320;52.008;4.530;2023-01-25T03:30:06;54.83;;;50.73;;
73132;SDS011;61320;52.008;4.530;2023-01-25T03:32:32;55.88;;;51.49;;
73132;SDS011;61320;52.008;4.530;2023-01-25T03:34:57;55.06;;;51.14;;
73132;SDS011;61320;52.008;4.530;2023-01-25T03:37:23;56.73;;;52.38;;
73132;SDS011;61320;52.008;4.530;2023-01-25T03:39:54;55.22;;;50.94;;
73132;SDS011;61320;52.008;4.530;2023-01-25T03:42:20;54.54;;;50.29;;
73132;SDS011;61320;52.008;4.530;2023-01-25T03:44:46;55.70;;;51.32;;
73132;SDS011;61320;52.008;4.530;2023-01-25T03:47:11;54.76;;;50.60;;
73132;SDS011;61320;52.008;4.530;2023-01-25T03:49:37;55.03;;;50.55;;
73132;SDS011;61320;52.008;4.530;2023-01-25T03:52:02;55.33;;;50.61;;
73132;SDS011;61320;52.008;4.530;2023-01-25T03:54:28;54.68;;;50.30;;
73132;SDS011;61320;52.008;4.530;2023-01-25T03:56:53;56.24;;;51.18;;
73132;SDS011;61320;52.008;4.530;2023-01-25T03:59:19;54.67;;;50.57;;
73132;SDS011;61320;52.008;4.530;2023-01-25T04:01:44;54.83;;;50.57;;
73132;SDS011;61320;52.008;4.530;2023-01-25T04:04:10;56.96;;;52.09;;
73132;SDS011;61320;52.008;4.530;2023-01-25T04:06:35;57.20;;;52.78;;
73132;SDS011;61320;52.008;4.530;2023-01-25T04:09:01;57.33;;;52.97;;
73132;SDS011;61320;52.008;4.530;2023-01-25T04:11:26;58.02;;;52.99;;
73132;SDS011;61320;52.008;4.530;2023-01-25T04:13:52;58.16;;;53.26;;
73132;SDS011;61320;52.008;4.530;2023-01-25T04:16:17;57.26;;;52.19;;
73132;SDS011;61320;52.008;4.530;2023-01-25T04:18:42;57.27;;;52.60;;
73132;SDS011;61320;52.008;4.530;2023-01-25T04:21:08;58.44;;;53.60;;
73132;SDS011;61320;52.008;4.530;2023-01-25T04:23:33;58.82;;;53.93;;
73132;SDS011;61320;52.008;4.530;2023-01-25T04:26:00;56.38;;;52.26;;
73132;SDS011;61320;52.008;4.530;2023-01-25T04:28:29;58.78;;;53.75;;
73132;SDS011;61320;52.008;4.530;2023-01-25T04:30:56;59.04;;;53.85;;
73132;SDS011;61320;52.008;4.530;2023-01-25T04:33:23;59.46;;;54.30;;
73132;SDS011;61320;52.008;4.530;2023-01-25T04:35:49;59.65;;;54.63;;
73132;SDS011;61320;52.008;4.530;2023-01-25T04:38:15;59.92;;;54.67;;
73132;SDS011;61320;52.008;4.530;2023-01-25T04:40:41;57.83;;;53.47;;
73132;SDS011;61320;52.008;4.530;2023-01-25T04:43:07;59.50;;;54.18;;
73132;SDS011;61320;52.008;4.530;2023-01-25T04:45:34;57.99;;;53.19;;
73132;SDS011;61320;52.008;4.530;2023-01-25T04:48:01;58.49;;;53.80;;
73132;SDS011;61320;52.008;4.530;2023-01-25T04:50:28;60.17;;;54.48;;
73132;SDS011;61320;52.008;4.530;2023-01-25T04:52:54;60.02;;;54.52;;
73132;SDS011;61320;52.008;4.530;2023-01-25T04:55:19;60.59;;;55.46;;
73132;SDS011;61320;52.008;4.530;2023-01-25T04:57:48;61.07;;;55.81;;
73132;SDS011;61320;52.008;4.530;2023-01-25T05:00:15;60.38;;;55.12;;
73132;SDS011;61320;52.008;4.530;2023-01-25T05:02:41;61.83;;;55.69;;
73132;SDS011;61320;52.008;4.530;2023-01-25T05:05:07;63.03;;;57.28;;
73132;SDS011;61320;52.008;4.530;2023-01-25T05:07:33;60.75;;;55.61;;
73132;SDS011;61320;52.008;4.530;2023-01-25T05:09:58;62.49;;;56.57;;
73132;SDS011;61320;52.008;4.530;2023-01-25T05:12:24;61.37;;;55.48;;
73132;SDS011;61320;52.008;4.530;2023-01-25T05:14:49;60.15;;;55.13;;
73132;SDS011;61320;52.008;4.530;2023-01-25T05:17:15;60.17;;;54.55;;
73132;SDS011;61320;52.008;4.530;2023-01-25T05:19:40;62.22;;;56.18;;
73132;SDS011;61320;52.008;4.530;2023-01-25T05:22:06;61.31;;;55.64;;
73132;SDS011;61320;52.008;4.530;2023-01-25T05:24:36;61.97;;;56.09;;
73132;SDS011;61320;52.008;4.530;2023-01-25T05:27:05;61.53;;;56.02;;
73132;SDS011;61320;52.008;4.530;2023-01-25T05:29:33;61.24;;;56.06;;
73132;SDS011;61320;52.008;4.530;2023-01-25T05:32:04;61.56;;;56.10;;
73132;SDS011;61320;52.008;4.530;2023-01-25T05:34:30;59.48;;;54.58;;
73132;SDS011;61320;52.008;4.530;2023-01-25T05:36:56;65.53;;;58.82;;
73132;SDS011;61320;52.008;4.530;2023-01-25T05:39:22;63.60;;;57.38;;
73132;SDS011;61320;52.008;4.530;2023-01-25T05:41:47;62.63;;;57.37;;
73132;SDS011;61320;52.008;4.530;2023-01-25T05:44:13;62.16;;;57.14;;
73132;SDS011;61320;52.008;4.530;2023-01-25T05:46:38;64.21;;;58.30;;
73132;SDS011;61320;52.008;4.530;2023-01-25T05:49:04;65.48;;;59.26;;
73132;SDS011;61320;52.008;4.530;2023-01-25T05:51:29;63.41;;;57.65;;
73132;SDS011;61320;52.008;4.530;2023-01-25T05:53:55;64.04;;;57.55;;
73132;SDS011;61320;52.008;4.530;2023-01-25T05:56:22;64.57;;;58.53;;
73132;SDS011;61320;52.008;4.530;2023-01-25T05:58:56;64.43;;;58.12;;
73132;SDS011;61320;52.008;4.530;2023-01-25T06:01:24;65.62;;;59.34;;
73132;SDS011;61320;52.008;4.530;2023-01-25T06:03:50;65.60;;;59.89;;
73132;SDS011;61320;52.008;4.530;2023-01-25T06:06:16;65.26;;;58.97;;
73132;SDS011;61320;52.008;4.530;2023-01-25T06:08:42;64.84;;;58.87;;
73132;SDS011;61320;52.008;4.530;2023-01-25T06:11:10;66.20;;;59.40;;
73132;SDS011;61320;52.008;4.530;2023-01-25T06:13:40;64.18;;;58.47;;
73132;SDS011;61320;52.008;4.530;2023-01-25T06:16:06;63.44;;;58.19;;
73132;SDS011;61320;52.008;4.530;2023-01-25T06:18:32;65.39;;;58.95;;
73132;SDS011;61320;52.008;4.530;2023-01-25T06:20:59;64.25;;;58.10;;
73132;SDS011;61320;52.008;4.530;2023-01-25T06:23:25;64.88;;;58.28;;
73132;SDS011;61320;52.008;4.530;2023-01-25T06:25:51;67.25;;;60.50;;
73132;SDS011;61320;52.008;4.530;2023-01-25T06:28:20;65.60;;;60.06;;
73132;SDS011;61320;52.008;4.530;2023-01-25T06:30:45;66.30;;;60.22;;
73132;SDS011;61320;52.008;4.530;2023-01-25T06:33:11;67.52;;;61.00;;
73132;SDS011;61320;52.008;4.530;2023-01-25T06:35:36;67.25;;;60.47;;
73132;SDS011;61320;52.008;4.530;2023-01-25T06:38:04;67.52;;;60.91;;
73132;SDS011;61320;52.008;4.530;2023-01-25T06:40:30;66.94;;;60.67;;
73132;SDS011;61320;52.008;4.530;2023-01-25T06:43:09;66.96;;;60.60;;
73132;SDS011;61320;52.008;4.530;2023-01-25T06:45:36;68.55;;;61.40;;
73132;SDS011;61320;52.008;4.530;2023-01-25T06:48:02;68.81;;;61.95;;
73132;SDS011;61320;52.008;4.530;2023-01-25T06:50:28;69.99;;;62.47;;
73132;SDS011;61320;52.008;4.530;2023-01-25T06:52:54;68.58;;;61.65;;
73132;SDS011;61320;52.008;4.530;2023-01-25T06:55:20;68.37;;;60.95;;
73132;SDS011;61320;52.008;4.530;2023-01-25T06:57:47;67.55;;;60.44;;
73132;SDS011;61320;52.008;4.530;2023-01-25T07:00:14;68.01;;;60.70;;
73132;SDS011;61320;52.008;4.530;2023-01-25T07:02:40;68.48;;;60.71;;
73132;SDS011;61320;52.008;4.530;2023-01-25T07:05:06;68.36;;;60.97;;
73132;SDS011;61320;52.008;4.530;2023-01-25T07:07:32;68.84;;;61.77;;
73132;SDS011;61320;52.008;4.530;2023-01-25T07:09:58;70.48;;;62.24;;
73132;SDS011;61320;52.008;4.530;2023-01-25T07:12:27;69.96;;;62.13;;
73132;SDS011;61320;52.008;4.530;2023-01-25T07:14:53;69.83;;;62.09;;
73132;SDS011;61320;52.008;4.530;2023-01-25T07:17:18;70.34;;;63.04;;
73132;SDS011;61320;52.008;4.530;2023-01-25T07:19:44;72.73;;;63.71;;
73132;SDS011;61320;52.008;4.530;2023-01-25T07:22:09;69.94;;;62.42;;
73132;SDS011;61320;52.008;4.530;2023-01-25T07:24:35;69.49;;;62.49;;
73132;SDS011;61320;52.008;4.530;2023-01-25T07:27:00;70.39;;;62.96;;
73132;SDS011;61320;52.008;4.530;2023-01-25T07:29:26;74.15;;;65.11;;
73132;SDS011;61320;52.008;4.530;2023-01-25T07:31:51;75.52;;;66.02;;
73132;SDS011;61320;52.008;4.530;2023-01-25T07:34:17;75.27;;;66.26;;
73132;SDS011;61320;52.008;4.530;2023-01-25T07:36:42;73.71;;;65.00;;
73132;SDS011;61320;52.008;4.530;2023-01-25T07:39:09;76.16;;;67.25;;
73132;SDS011;61320;52.008;4.530;2023-01-25T07:41:35;74.60;;;66.21;;
73132;SDS011;61320;52.008;4.530;2023-01-25T07:44:01;74.25;;;65.93;;
73132;SDS011;61320;52.008;4.530;2023-01-25T07:46:27;73.47;;;65.39;;
73132;SDS011;61320;52.008;4.530;2023-01-25T07:48:53;74.45;;;66.20;;
73132;SDS011;61320;52.008;4.530;2023-01-25T07:51:20;74.63;;;66.04;;
73132;SDS011;61320;52.008;4.530;2023-01-25T07:53:47;74.66;;;66.40;;
73132;SDS011;61320;52.008;4.530;2023-01-25T07:56:24;76.33;;;67.09;;
73132;SDS011;61320;52.008;4.530;2023-01-25T07:58:52;76.48;;;67.42;;
73132;SDS011;61320;52.008;4.530;2023-01-25T08:01:22;76.44;;;68.20;;
73132;SDS011;61320;52.008;4.530;2023-01-25T08:03:50;73.21;;;65.84;;
73132;SDS011;61320;52.008;4.530;2023-01-25T08:06:17;75.04;;;67.08;;
73132;SDS011;61320;52.008;4.530;2023-01-25T08:08:55;75.44;;;67.42;;
73132;SDS011;61320;52.008;4.530;2023-01-25T08:11:23;73.51;;;65.74;;
73132;SDS011;61320;52.008;4.530;2023-01-25T08:13:50;73.83;;;65.73;;
73132;SDS011;61320;52.008;4.530;2023-01-25T08:16:17;74.72;;;66.74;;
73132;SDS011;61320;52.008;4.530;2023-01-25T08:18:47;77.20;;;68.20;;
73132;SDS011;61320;52.008;4.530;2023-01-25T08:21:14;76.32;;;67.68;;
73132;SDS011;61320;52.008;4.530;2023-01-25T08:23:40;77.61;;;68.03;;
73132;SDS011;61320;52.008;4.530;2023-01-25T08:26:06;75.98;;;67.04;;
73132;SDS011;61320;52.008;4.530;2023-01-25T08:28:34;77.64;;;68.27;;
73132;SDS011;61320;52.008;4.530;2023-01-25T08:31:16;75.08;;;66.53;;
73132;SDS011;61320;52.008;4.530;2023-01-25T08:33:43;76.78;;;67.31;;
73132;SDS011;61320;52.008;4.530;2023-01-25T08:36:10;76.80;;;67.06;;
73132;SDS011;61320;52.008;4.530;2023-01-25T08:38:37;76.90;;;67.30;;
73132;SDS011;61320;52.008;4.530;2023-01-25T08:41:36;76.83;;;66.68;;
73132;SDS011;61320;52.008;4.530;2023-01-25T08:43:56;73.37;;;64.70;;
73132;SDS011;61320;52.008;4.530;2023-01-25T08:46:22;73.18;;;64.67;;
73132;SDS011;61320;52.008;4.530;2023-01-25T08:48:53;74.78;;;65.70;;
73132;SDS011;61320;52.008;4.530;2023-01-25T08:51:20;73.39;;;65.17;;
73132;SDS011;61320;52.008;4.530;2023-01-25T08:53:46;73.90;;;65.65;;
73132;SDS011;61320;52.008;4.530;2023-01-25T08:56:12;76.16;;;67.52;;
73132;SDS011;61320;52.008;4.530;2023-01-25T08:58:41;74.64;;;66.26;;
73132;SDS011;61320;52.008;4.530;2023-01-25T09:01:09;73.45;;;66.01;;
73132;SDS011;61320;52.008;4.530;2023-01-25T09:03:38;73.42;;;65.36;;
73132;SDS011;61320;52.008;4.530;2023-01-25T09:06:05;74.98;;;66.36;;
73132;SDS011;61320;52.008;4.530;2023-01-25T09:08:32;75.06;;;66.18;;
73132;SDS011;61320;52.008;4.530;2023-01-25T09:11:01;75.01;;;67.00;;
73132;SDS011;61320;52.008;4.530;2023-01-25T09:13:28;76.39;;;67.05;;
73132;SDS011;61320;52.008;4.530;2023-01-25T09:16:00;81.98;;;70.82;;
73132;SDS011;61320;52.008;4.530;2023-01-25T09:18:28;75.22;;;66.86;;
73132;SDS011;61320;52.008;4.530;2023-01-25T09:20:55;76.31;;;67.74;;
73132;SDS011;61320;52.008;4.530;2023-01-25T09:23:21;79.04;;;69.32;;
73132;SDS011;61320;52.008;4.530;2023-01-25T09:25:54;76.69;;;67.72;;
73132;SDS011;61320;52.008;4.530;2023-01-25T09:28:22;76.46;;;67.43;;
73132;SDS011;61320;52.008;4.530;2023-01-25T09:30:58;74.98;;;66.31;;
73132;SDS011;61320;52.008;4.530;2023-01-25T09:33:30;78.33;;;68.16;;
73132;SDS011;61320;52.008;4.530;2023-01-25T09:36:01;76.98;;;67.90;;
73132;SDS011;61320;52.008;4.530;2023-01-25T09:38:27;75.50;;;67.11;;
73132;SDS011;61320;52.008;4.530;2023-01-25T09:46:38;74.02;;;65.43;;
73132;SDS011;61320;52.008;4.530;2023-01-25T09:54:47;74.17;;;65.24;;
73132;SDS011;61320;52.008;4.530;2023-01-25T09:57:25;73.57;;;66.28;;
73132;SDS011;61320;52.008;4.530;2023-01-25T09:59:58;75.00;;;66.40;;
73132;SDS011;61320;52.008;4.530;2023-01-25T10:02:35;73.48;;;65.55;;
73132;SDS011;61320;52.008;4.530;2023-01-25T10:05:11;74.29;;;66.37;;
73132;SDS011;61320;52.008;4.530;2023-01-25T10:07:49;75.88;;;67.41;;
73132;SDS011;61320;52.008;4.530;2023-01-25T10:10:41;74.10;;;66.96;;
73132;SDS011;61320;52.008;4.530;2023-01-25T10:13:12;70.75;;;63.79;;
73132;SDS011;61320;52.008;4.530;2023-01-25T10:15:51;72.29;;;64.96;;
73132;SDS011;61320;52.008;4.530;2023-01-25T10:18:36;80.09;;;71.45;;
73132;SDS011;61320;52.008;4.530;2023-01-25T10:21:20;79.77;;;70.95;;
73132;SDS011;61320;52.008;4.530;2023-01-25T10:24:05;76.89;;;67.22;;
73132;SDS011;61320;52.008;4.530;2023-01-25T10:26:51;76.72;;;67.34;;
73132;SDS011;61320;52.008;4.530;2023-01-25T10:29:27;79.36;;;69.41;;
73132;SDS011;61320;52.008;4.530;2023-01-25T10:34:47;78.80;;;68.31;;
73132;SDS011;61320;52.008;4.530;2023-01-25T10:37:21;75.60;;;66.50;;
73132;SDS011;61320;52.008;4.530;2023-01-25T10:40:01;75.90;;;66.68;;
73132;SDS011;61320;52.008;4.530;2023-01-25T10:42:43;73.61;;;64.99;;
73132;SDS011;61320;52.008;4.530;2023-01-25T10:45:15;78.00;;;68.81;;
73132;SDS011;61320;52.008;4.530;2023-01-25T10:47:42;77.62;;;67.69;;
73132;SDS011;61320;52.008;4.530;2023-01-25T10:50:46;75.11;;;66.11;;
73132;SDS011;61320;52.008;4.530;2023-01-25T10:58:37;72.00;;;63.44;;
73132;SDS011;61320;52.008;4.530;2023-01-25T11:01:38;74.43;;;65.22;;
73132;SDS011;61320;52.008;4.530;2023-01-25T11:03:58;76.63;;;68.08;;
73132;SDS011;61320;52.008;4.530;2023-01-25T11:06:36;83.89;;;74.74;;
73132;SDS011;61320;52.008;4.530;2023-01-25T11:09:48;78.70;;;70.03;;
73132;SDS011;61320;52.008;4.530;2023-01-25T11:11:57;75.94;;;67.70;;
73132;SDS011;61320;52.008;4.530;2023-01-25T11:14:25;76.13;;;67.60;;
73132;SDS011;61320;52.008;4.530;2023-01-25T11:16:56;77.07;;;68.42;;
73132;SDS011;61320;52.008;4.530;2023-01-25T11:21:55;75.60;;;67.44;;
73132;SDS011;61320;52.008;4.530;2023-01-25T11:24:26;74.44;;;66.25;;
73132;SDS011;61320;52.008;4.530;2023-01-25T11:29:37;76.72;;;68.23;;
73132;SDS011;61320;52.008;4.530;2023-01-25T11:32:04;78.55;;;69.57;;
73132;SDS011;61320;52.008;4.530;2023-01-25T11:34:44;76.70;;;68.39;;
73132;SDS011;61320;52.008;4.530;2023-01-25T11:50:51;78.98;;;70.14;;
73132;SDS011;61320;52.008;4.530;2023-01-25T12:01:41;83.67;;;73.61;;
73132;SDS011;61320;52.008;4.530;2023-01-25T12:13:17;85.48;;;73.65;;
73132;SDS011;61320;52.008;4.530;2023-01-25T12:16:49;84.92;;;73.57;;
73132;SDS011;61320;52.008;4.530;2023-01-25T12:29:47;85.72;;;73.16;;
73132;SDS011;61320;52.008;4.530;2023-01-25T12:32:38;85.82;;;73.69;;
73132;SDS011;61320;52.008;4.530;2023-01-25T12:37:46;85.55;;;73.66;;
73132;SDS011;61320;52.008;4.530;2023-01-25T12:40:24;81.80;;;71.25;;
73132;SDS011;61320;52.008;4.530;2023-01-25T12:43:29;82.18;;;70.03;;
73132;SDS011;61320;52.008;4.530;2023-01-25T12:46:09;84.35;;;72.39;;
73132;SDS011;61320;52.008;4.530;2023-01-25T12:48:49;82.07;;;70.59;;
73132;SDS011;61320;52.008;4.530;2023-01-25T12:51:19;81.17;;;70.19;;
73132;SDS011;61320;52.008;4.530;2023-01-25T12:53:48;80.82;;;68.99;;
73132;SDS011;61320;52.008;4.530;2023-01-25T12:56:26;81.76;;;71.14;;
73132;SDS011;61320;52.008;4.530;2023-01-25T13:02:01;76.40;;;66.89;;
73132;SDS011;61320;52.008;4.530;2023-01-25T13:07:11;77.49;;;67.88;;
73132;SDS011;61320;52.008;4.530;2023-01-25T13:09:47;76.86;;;66.75;;
73132;SDS011;61320;52.008;4.530;2023-01-25T13:12:22;77.87;;;66.99;;
73132;SDS011;61320;52.008;4.530;2023-01-25T13:14:48;78.20;;;67.46;;
73132;SDS011;61320;52.008;4.530;2023-01-25T13:17:27;78.71;;;67.58;;
73132;SDS011;61320;52.008;4.530;2023-01-25T13:20:08;76.28;;;66.97;;
73132;SDS011;61320;52.008;4.530;2023-01-25T13:23:02;76.22;;;66.05;;
73132;SDS011;61320;52.008;4.530;2023-01-25T13:25:28;72.69;;;63.40;;
73132;SDS011;61320;52.008;4.530;2023-01-25T13:28:34;72.39;;;62.54;;
73132;SDS011;61320;52.008;4.530;2023-01-25T13:34:02;73.82;;;63.81;;
73132;SDS011;61320;52.008;4.530;2023-01-25T13:41:56;73.34;;;64.58;;
73132;SDS011;61320;52.008;4.530;2023-01-25T13:44:27;77.46;;;67.02;;
73132;SDS011;61320;52.008;4.530;2023-01-25T13:47:03;80.93;;;69.52;;
73132;SDS011;61320;52.008;4.530;2023-01-25T13:49:45;79.36;;;68.28;;
73132;SDS011;61320;52.008;4.530;2023-01-25T13:52:28;76.83;;;67.61;;
73132;SDS011;61320;52.008;4.530;2023-01-25T13:54:57;75.69;;;66.82;;
73132;SDS011;61320;52.008;4.530;2023-01-25T13:57:26;75.01;;;66.03;;
73132;SDS011;61320;52.008;4.530;2023-01-25T13:59:59;75.20;;;65.95;;
73132;SDS011;61320;52.008;4.530;2023-01-25T14:02:47;70.89;;;62.89;;
73132;SDS011;61320;52.008;4.530;2023-01-25T14:05:19;71.70;;;62.62;;
73132;SDS011;61320;52.008;4.530;2023-01-25T14:07:49;79.55;;;69.17;;
73132;SDS011;61320;52.008;4.530;2023-01-25T14:10:18;80.23;;;69.97;;
73132;SDS011;61320;52.008;4.530;2023-01-25T14:12:48;76.56;;;66.97;;
73132;SDS011;61320;52.008;4.530;2023-01-25T14:15:16;76.72;;;66.40;;
73132;SDS011;61320;52.008;4.530;2023-01-25T14:18:05;74.49;;;64.57;;
73132;SDS011;61320;52.008;4.530;2023-01-25T14:20:35;71.50;;;61.67;;
73132;SDS011;61320;52.008;4.530;2023-01-25T14:23:00;69.00;;;60.68;;
73132;SDS011;61320;52.008;4.530;2023-01-25T14:25:26;66.87;;;58.06;;
73132;SDS011;61320;52.008;4.530;2023-01-25T14:27:53;67.01;;;57.15;;
73132;SDS011;61320;52.008;4.530;2023-01-25T14:30:22;65.47;;;56.79;;
73132;SDS011;61320;52.008;4.530;2023-01-25T14:32:55;65.05;;;56.91;;
73132;SDS011;61320;52.008;4.530;2023-01-25T14:37:49;69.65;;;60.05;;
73132;SDS011;61320;52.008;4.530;2023-01-25T14:40:15;70.09;;;60.53;;
73132;SDS011;61320;52.008;4.530;2023-01-25T14:42:46;64.35;;;57.00;;
73132;SDS011;61320;52.008;4.530;2023-01-25T14:45:13;66.11;;;58.56;;
73132;SDS011;61320;52.008;4.530;2023-01-25T14:47:40;69.79;;;60.07;;
73132;SDS011;61320;52.008;4.530;2023-01-25T14:52:54;71.92;;;62.05;;
73132;SDS011;61320;52.008;4.530;2023-01-25T14:55:22;70.86;;;61.36;;
73132;SDS011;61320;52.008;4.530;2023-01-25T14:57:49;76.10;;;64.49;;
73132;SDS011;61320;52.008;4.530;2023-01-25T15:00:22;72.54;;;62.65;;
73132;SDS011;61320;52.008;4.530;2023-01-25T15:02:56;75.76;;;64.78;;
73132;SDS011;61320;52.008;4.530;2023-01-25T15:05:25;72.82;;;63.08;;
73132;SDS011;61320;52.008;4.530;2023-01-25T15:10:32;72.58;;;62.59;;
73132;SDS011;61320;52.008;4.530;2023-01-25T15:21:24;68.99;;;59.52;;
73132;SDS011;61320;52.008;4.530;2023-01-25T15:23:52;70.29;;;60.11;;
73132;SDS011;61320;52.008;4.530;2023-01-25T15:26:24;70.17;;;60.15;;
73132;SDS011;61320;52.008;4.530;2023-01-25T15:28:55;69.69;;;59.94;;
73132;SDS011;61320;52.008;4.530;2023-01-25T15:33:48;70.44;;;59.54;;
73132;SDS011;61320;52.008;4.530;2023-01-25T15:36:14;70.43;;;60.23;;
73132;SDS011;61320;52.008;4.530;2023-01-25T15:38:41;71.10;;;61.18;;
73132;SDS011;61320;52.008;4.530;2023-01-25T15:41:06;70.22;;;60.32;;
73132;SDS011;61320;52.008;4.530;2023-01-25T15:43:32;69.45;;;59.10;;
73132;SDS011;61320;52.008;4.530;2023-01-25T15:45:58;66.91;;;58.10;;
73132;SDS011;61320;52.008;4.530;2023-01-25T15:48:28;69.70;;;60.85;;
73132;SDS011;61320;52.008;4.530;2023-01-25T15:50:56;69.76;;;60.06;;
73132;SDS011;61320;52.008;4.530;2023-01-25T15:53:22;68.78;;;58.47;;
73132;SDS011;61320;52.008;4.530;2023-01-25T15:55:51;68.75;;;59.44;;
73132;SDS011;61320;52.008;4.530;2023-01-25T15:58:22;81.01;;;73.43;;
73132;SDS011;61320;52.008;4.530;2023-01-25T16:00:51;70.44;;;61.58;;
73132;SDS011;61320;52.008;4.530;2023-01-25T16:03:17;82.62;;;74.04;;
73132;SDS011;61320;52.008;4.530;2023-01-25T16:05:45;86.70;;;77.50;;
73132;SDS011;61320;52.008;4.530;2023-01-25T16:08:17;85.15;;;77.24;;
73132;SDS011;61320;52.008;4.530;2023-01-25T16:10:45;87.74;;;79.28;;
73132;SDS011;61320;52.008;4.530;2023-01-25T16:13:11;80.66;;;70.65;;
73132;SDS011;61320;52.008;4.530;2023-01-25T16:15:36;77.46;;;67.85;;
73132;SDS011;61320;52.008;4.530;2023-01-25T16:18:04;71.15;;;61.78;;
73132;SDS011;61320;52.008;4.530;2023-01-25T16:20:30;70.98;;;61.15;;
73132;SDS011;61320;52.008;4.530;2023-01-25T16:22:55;72.17;;;61.80;;
73132;SDS011;61320;52.008;4.530;2023-01-25T16:25:21;72.76;;;62.21;;
73132;SDS011;61320;52.008;4.530;2023-01-25T16:27:46;75.89;;;64.88;;